sensor_id;sensor_type;location;lat;lon;timestamp;temperature;humidity
18712;DHT22;9485;49.386;8.674;2022-12-18T00:02:59;-2.10;89.10
18712;DHT22;9485;49.386;8.674;2022-12-18T00:08:21;-2.10;89.20
18712;DHT22;9485;49.386;8.674;2022-12-18T00:13:43;-2.10;89.50
18712;DHT22;9485;49.386;8.674;2022-12-18T00:19:04;-2.10;89.30
18712;DHT22;9485;49.386;8.674;2022-12-18T00:24:26;-2.10;88.80
18712;DHT22;9485;49.386;8.674;2022-12-18T00:29:49;-2.10;88.80
18712;DHT22;9485;49.386;8.674;2022-12-18T00:35:10;-2.10;88.60
18712;DHT22;9485;49.386;8.674;2022-12-18T00:40:30;-2.10;89.00
18712;DHT22;9485;49.386;8.674;2022-12-18T00:45:52;-2.10;89.10
18712;DHT22;9485;49.386;8.674;2022-12-18T00:51:13;-2.10;89.20
18712;DHT22;9485;49.386;8.674;2022-12-18T00:56:35;-2.10;89.20
18712;DHT22;9485;49.386;8.674;2022-12-18T01:01:58;-2.10;89.00
18712;DHT22;9485;49.386;8.674;2022-12-18T01:07:19;-2.10;88.20
18712;DHT22;9485;49.386;8.674;2022-12-18T01:12:40;-2.20;88.40
18712;DHT22;9485;49.386;8.674;2022-12-18T01:18:02;-2.10;88.60
18712;DHT22;9485;49.386;8.674;2022-12-18T01:23:25;-2.20;88.50
18712;DHT22;9485;49.386;8.674;2022-12-18T01:28:46;-2.20;88.80
18712;DHT22;9485;49.386;8.674;2022-12-18T01:34:09;-2.20;89.00
18712;DHT22;9485;49.386;8.674;2022-12-18T01:39:30;-2.20;89.10
18712;DHT22;9485;49.386;8.674;2022-12-18T01:45:01;-2.10;89.40
18712;DHT22;9485;49.386;8.674;2022-12-18T01:50:31;-2.10;89.20
18712;DHT22;9485;49.386;8.674;2022-12-18T01:55:55;-2.10;89.20
18712;DHT22;9485;49.386;8.674;2022-12-18T02:01:18;-2.10;89.30
18712;DHT22;9485;49.386;8.674;2022-12-18T02:06:41;-2.10;89.30
18712;DHT22;9485;49.386;8.674;2022-12-18T02:12:10;-2.10;89.10
18712;DHT22;9485;49.386;8.674;2022-12-18T02:17:43;-2.10;88.70
18712;DHT22;9485;49.386;8.674;2022-12-18T02:23:22;-2.20;88.20
18712;DHT22;9485;49.386;8.674;2022-12-18T02:28:58;-2.20;87.90
18712;DHT22;9485;49.386;8.674;2022-12-18T02:34:27;-2.30;88.00
18712;DHT22;9485;49.386;8.674;2022-12-18T02:39:53;-2.30;87.70
18712;DHT22;9485;49.386;8.674;2022-12-18T02:45:18;-2.40;88.60
18712;DHT22;9485;49.386;8.674;2022-12-18T02:50:45;-2.40;88.10
18712;DHT22;9485;49.386;8.674;2022-12-18T02:56:19;-2.40;88.20
18712;DHT22;9485;49.386;8.674;2022-12-18T03:01:51;-2.50;88.20
18712;DHT22;9485;49.386;8.674;2022-12-18T03:07:21;-2.50;88.60
18712;DHT22;9485;49.386;8.674;2022-12-18T03:12:52;-2.50;88.80
18712;DHT22;9485;49.386;8.674;2022-12-18T03:18:23;-2.50;88.70
18712;DHT22;9485;49.386;8.674;2022-12-18T03:23:49;-2.50;88.70
18712;DHT22;9485;49.386;8.674;2022-12-18T03:29:16;-2.50;88.00
18712;DHT22;9485;49.386;8.674;2022-12-18T04:31:34;-2.70;88.50
18712;DHT22;9485;49.386;8.674;2022-12-18T04:36:55;-2.80;88.50
18712;DHT22;9485;49.386;8.674;2022-12-18T04:42:16;-2.80;88.30
18712;DHT22;9485;49.386;8.674;2022-12-18T04:47:38;-2.80;87.90
18712;DHT22;9485;49.386;8.674;2022-12-18T04:52:59;-2.90;88.10
18712;DHT22;9485;49.386;8.674;2022-12-18T04:58:19;-2.90;88.10
18712;DHT22;9485;49.386;8.674;2022-12-18T05:03:41;-2.90;88.10
18712;DHT22;9485;49.386;8.674;2022-12-18T05:09:02;-3.00;88.00
18712;DHT22;9485;49.386;8.674;2022-12-18T05:14:23;-3.00;88.20
18712;DHT22;9485;49.386;8.674;2022-12-18T05:19:45;-3.00;88.40
18712;DHT22;9485;49.386;8.674;2022-12-18T05:25:06;-3.00;88.40
18712;DHT22;9485;49.386;8.674;2022-12-18T05:30:27;-3.00;88.60
18712;DHT22;9485;49.386;8.674;2022-12-18T05:35:51;-3.00;88.50
18712;DHT22;9485;49.386;8.674;2022-12-18T05:41:13;-3.00;88.50
18712;DHT22;9485;49.386;8.674;2022-12-18T05:46:33;-3.00;88.50
18712;DHT22;9485;49.386;8.674;2022-12-18T05:51:55;-3.00;88.30
18712;DHT22;9485;49.386;8.674;2022-12-18T05:57:16;-3.00;88.00
18712;DHT22;9485;49.386;8.674;2022-12-18T06:02:36;-3.10;88.80
18712;DHT22;9485;49.386;8.674;2022-12-18T06:07:58;-3.10;88.40
18712;DHT22;9485;49.386;8.674;2022-12-18T06:13:19;-3.10;87.60
18712;DHT22;9485;49.386;8.674;2022-12-18T06:18:40;-3.10;87.90
18712;DHT22;9485;49.386;8.674;2022-12-18T06:24:02;-3.10;87.80
18712;DHT22;9485;49.386;8.674;2022-12-18T06:29:23;-3.20;87.60
18712;DHT22;9485;49.386;8.674;2022-12-18T06:34:44;-3.30;87.60
18712;DHT22;9485;49.386;8.674;2022-12-18T06:40:07;-3.40;87.30
18712;DHT22;9485;49.386;8.674;2022-12-18T06:45:28;-3.40;87.70
18712;DHT22;9485;49.386;8.674;2022-12-18T06:50:49;-3.40;88.00
18712;DHT22;9485;49.386;8.674;2022-12-18T06:56:10;-3.40;88.10
18712;DHT22;9485;49.386;8.674;2022-12-18T07:01:31;-3.40;88.10
18712;DHT22;9485;49.386;8.674;2022-12-18T07:06:52;-3.50;87.60
18712;DHT22;9485;49.386;8.674;2022-12-18T07:12:14;-3.50;87.40
18712;DHT22;9485;49.386;8.674;2022-12-18T07:17:35;-3.60;87.60
18712;DHT22;9485;49.386;8.674;2022-12-18T07:22:56;-3.60;87.60
18712;DHT22;9485;49.386;8.674;2022-12-18T07:28:18;-3.60;87.10
18712;DHT22;9485;49.386;8.674;2022-12-18T07:33:39;-3.70;86.60
18712;DHT22;9485;49.386;8.674;2022-12-18T07:39:00;-3.70;87.10
18712;DHT22;9485;49.386;8.674;2022-12-18T08:41:24;-2.70;90.40
18712;DHT22;9485;49.386;8.674;2022-12-18T08:46:45;-2.20;90.60
18712;DHT22;9485;49.386;8.674;2022-12-18T08:52:06;-1.90;90.60
18712;DHT22;9485;49.386;8.674;2022-12-18T08:57:29;-1.70;90.40
18712;DHT22;9485;49.386;8.674;2022-12-18T09:02:50;-1.50;90.40
18712;DHT22;9485;49.386;8.674;2022-12-18T09:08:10;-1.20;90.10
18712;DHT22;9485;49.386;8.674;2022-12-18T09:13:33;-1.00;90.20
18712;DHT22;9485;49.386;8.674;2022-12-18T09:18:54;-0.80;90.20
18712;DHT22;9485;49.386;8.674;2022-12-18T09:24:18;-0.60;90.20
18712;DHT22;9485;49.386;8.674;2022-12-18T09:29:41;-0.40;90.30
18712;DHT22;9485;49.386;8.674;2022-12-18T09:35:02;-0.10;90.40
18712;DHT22;9485;49.386;8.674;2022-12-18T09:40:25;0.10;90.10
18712;DHT22;9485;49.386;8.674;2022-12-18T09:45:53;0.20;89.80
18712;DHT22;9485;49.386;8.674;2022-12-18T09:51:21;0.40;90.00
18712;DHT22;9485;49.386;8.674;2022-12-18T09:56:46;0.50;90.00
18712;DHT22;9485;49.386;8.674;2022-12-18T10:02:17;0.70;90.10
18712;DHT22;9485;49.386;8.674;2022-12-18T10:07:50;0.90;90.10
18712;DHT22;9485;49.386;8.674;2022-12-18T10:13:22;1.10;90.00
18712;DHT22;9485;49.386;8.674;2022-12-18T10:19:01;1.30;89.90
18712;DHT22;9485;49.386;8.674;2022-12-18T10:24:37;1.60;89.50
18712;DHT22;9485;49.386;8.674;2022-12-18T10:30:13;1.70;89.50
18712;DHT22;9485;49.386;8.674;2022-12-18T10:35:36;1.80;89.00
18712;DHT22;9485;49.386;8.674;2022-12-18T10:40:58;1.90;89.20
18712;DHT22;9485;49.386;8.674;2022-12-18T10:46:20;2.10;88.30
18712;DHT22;9485;49.386;8.674;2022-12-18T10:51:43;2.10;87.60
18712;DHT22;9485;49.386;8.674;2022-12-18T10:57:32;2.10;87.90
18712;DHT22;9485;49.386;8.674;2022-12-18T11:02:57;2.10;87.20
18712;DHT22;9485;49.386;8.674;2022-12-18T11:08:21;2.10;88.10
18712;DHT22;9485;49.386;8.674;2022-12-18T11:13:59;2.20;88.00
18712;DHT22;9485;49.386;8.674;2022-12-18T11:19:30;2.30;88.00
18712;DHT22;9485;49.386;8.674;2022-12-18T11:24:57;2.40;87.30
18712;DHT22;9485;49.386;8.674;2022-12-18T11:30:25;2.40;87.50
18712;DHT22;9485;49.386;8.674;2022-12-18T11:35:52;2.50;87.60
18712;DHT22;9485;49.386;8.674;2022-12-18T11:41:23;2.50;87.10
18712;DHT22;9485;49.386;8.674;2022-12-18T11:47:15;2.50;86.90
18712;DHT22;9485;49.386;8.674;2022-12-18T11:52:42;2.60;87.30
18712;DHT22;9485;49.386;8.674;2022-12-18T11:58:11;2.60;87.30
18712;DHT22;9485;49.386;8.674;2022-12-18T12:03:47;2.70;87.00
18712;DHT22;9485;49.386;8.674;2022-12-18T12:09:29;2.60;86.20
18712;DHT22;9485;49.386;8.674;2022-12-18T12:15:03;2.60;86.50
18712;DHT22;9485;49.386;8.674;2022-12-18T12:20:42;2.60;86.30
18712;DHT22;9485;49.386;8.674;2022-12-18T12:26:12;2.60;86.10
18712;DHT22;9485;49.386;8.674;2022-12-18T12:31:52;2.60;86.90
18712;DHT22;9485;49.386;8.674;2022-12-18T12:37:28;2.60;86.80
18712;DHT22;9485;49.386;8.674;2022-12-18T12:43:02;2.70;87.10
18712;DHT22;9485;49.386;8.674;2022-12-18T12:48:40;2.60;86.60
18712;DHT22;9485;49.386;8.674;2022-12-18T12:54:08;2.60;86.80
18712;DHT22;9485;49.386;8.674;2022-12-18T12:59:42;2.50;86.30
18712;DHT22;9485;49.386;8.674;2022-12-18T13:05:17;2.50;86.30
18712;DHT22;9485;49.386;8.674;2022-12-18T13:10:43;2.50;86.40
18712;DHT22;9485;49.386;8.674;2022-12-18T13:16:05;2.50;86.70
18712;DHT22;9485;49.386;8.674;2022-12-18T13:21:33;2.60;87.00
18712;DHT22;9485;49.386;8.674;2022-12-18T13:26:54;2.70;87.00
18712;DHT22;9485;49.386;8.674;2022-12-18T13:32:19;2.80;87.00
18712;DHT22;9485;49.386;8.674;2022-12-18T13:37:51;2.80;86.30
18712;DHT22;9485;49.386;8.674;2022-12-18T13:43:23;2.80;86.00
18712;DHT22;9485;49.386;8.674;2022-12-18T13:48:56;2.80;86.10
18712;DHT22;9485;49.386;8.674;2022-12-18T13:54:25;2.80;86.60
18712;DHT22;9485;49.386;8.674;2022-12-18T13:59:51;2.90;87.00
18712;DHT22;9485;49.386;8.674;2022-12-18T14:05:22;2.90;87.10
18712;DHT22;9485;49.386;8.674;2022-12-18T14:10:46;3.00;86.50
18712;DHT22;9485;49.386;8.674;2022-12-18T14:16:14;3.00;86.80
18712;DHT22;9485;49.386;8.674;2022-12-18T14:21:37;3.00;86.80
18712;DHT22;9485;49.386;8.674;2022-12-18T14:27:17;3.00;86.60
18712;DHT22;9485;49.386;8.674;2022-12-18T14:32:41;3.00;85.00
18712;DHT22;9485;49.386;8.674;2022-12-18T14:38:19;3.10;86.70
18712;DHT22;9485;49.386;8.674;2022-12-18T14:43:44;2.90;85.90
18712;DHT22;9485;49.386;8.674;2022-12-18T14:49:19;2.90;86.60
18712;DHT22;9485;49.386;8.674;2022-12-18T15:00:18;4.00;85.70
18712;DHT22;9485;49.386;8.674;2022-12-18T15:05:41;2.70;86.80
18712;DHT22;9485;49.386;8.674;2022-12-18T15:13:20;2.70;84.90
18712;DHT22;9485;49.386;8.674;2022-12-18T15:18:43;2.60;86.40
18712;DHT22;9485;49.386;8.674;2022-12-18T15:24:16;2.60;86.20
18712;DHT22;9485;49.386;8.674;2022-12-18T15:29:42;2.50;85.80
18712;DHT22;9485;49.386;8.674;2022-12-18T15:35:14;2.40;86.30
18712;DHT22;9485;49.386;8.674;2022-12-18T15:40:36;2.40;85.90
18712;DHT22;9485;49.386;8.674;2022-12-18T15:45:58;2.30;86.50
18712;DHT22;9485;49.386;8.674;2022-12-18T15:51:22;2.20;86.20
18712;DHT22;9485;49.386;8.674;2022-12-18T15:56:46;2.20;86.10
18712;DHT22;9485;49.386;8.674;2022-12-18T16:02:26;2.00;83.90
18712;DHT22;9485;49.386;8.674;2022-12-18T16:07:47;1.90;85.30
18712;DHT22;9485;49.386;8.674;2022-12-18T16:13:10;1.80;85.70
18712;DHT22;9485;49.386;8.674;2022-12-18T16:18:33;1.80;86.20
18712;DHT22;9485;49.386;8.674;2022-12-18T16:23:54;1.70;86.70
18712;DHT22;9485;49.386;8.674;2022-12-18T16:29:15;1.70;86.40
18712;DHT22;9485;49.386;8.674;2022-12-18T16:34:37;1.70;85.90
18712;DHT22;9485;49.386;8.674;2022-12-18T16:39:58;1.70;86.50
18712;DHT22;9485;49.386;8.674;2022-12-18T16:45:21;1.70;86.60
18712;DHT22;9485;49.386;8.674;2022-12-18T16:50:43;1.70;87.20
18712;DHT22;9485;49.386;8.674;2022-12-18T16:56:04;1.70;87.30
18712;DHT22;9485;49.386;8.674;2022-12-18T17:01:26;1.80;86.90
18712;DHT22;9485;49.386;8.674;2022-12-18T17:06:50;1.80;87.40
18712;DHT22;9485;49.386;8.674;2022-12-18T17:12:12;1.80;87.90
18712;DHT22;9485;49.386;8.674;2022-12-18T17:17:32;1.90;88.40
18712;DHT22;9485;49.386;8.674;2022-12-18T17:22:56;2.00;88.40
18712;DHT22;9485;49.386;8.674;2022-12-18T17:28:17;2.10;88.00
18712;DHT22;9485;49.386;8.674;2022-12-18T17:33:40;2.10;87.40
18712;DHT22;9485;49.386;8.674;2022-12-18T17:46:06;2.10;86.70
18712;DHT22;9485;49.386;8.674;2022-12-18T17:51:27;2.10;87.70
18712;DHT22;9485;49.386;8.674;2022-12-18T17:56:48;2.10;88.00
18712;DHT22;9485;49.386;8.674;2022-12-18T18:02:11;2.20;88.00
18712;DHT22;9485;49.386;8.674;2022-12-18T18:07:31;2.20;88.00
18712;DHT22;9485;49.386;8.674;2022-12-18T18:16:11;2.20;85.60
18712;DHT22;9485;49.386;8.674;2022-12-18T18:21:37;2.30;87.80
18712;DHT22;9485;49.386;8.674;2022-12-18T18:26:58;2.40;87.80
18712;DHT22;9485;49.386;8.674;2022-12-18T18:32:20;2.40;88.10
18712;DHT22;9485;49.386;8.674;2022-12-18T18:37:42;2.50;88.20
18712;DHT22;9485;49.386;8.674;2022-12-18T18:43:02;2.50;88.00
18712;DHT22;9485;49.386;8.674;2022-12-18T18:48:24;2.60;87.50
18712;DHT22;9485;49.386;8.674;2022-12-18T18:53:49;2.70;87.00
18712;DHT22;9485;49.386;8.674;2022-12-18T18:59:10;2.70;87.00
18712;DHT22;9485;49.386;8.674;2022-12-18T19:04:33;2.70;86.50
18712;DHT22;9485;49.386;8.674;2022-12-18T19:09:55;2.70;87.00
18712;DHT22;9485;49.386;8.674;2022-12-18T19:15:15;2.80;87.20
18712;DHT22;9485;49.386;8.674;2022-12-18T19:20:37;2.70;87.60
18712;DHT22;9485;49.386;8.674;2022-12-18T19:25:58;2.80;87.70
18712;DHT22;9485;49.386;8.674;2022-12-18T19:31:20;2.80;87.80
18712;DHT22;9485;49.386;8.674;2022-12-18T19:36:42;2.80;88.20
18712;DHT22;9485;49.386;8.674;2022-12-18T19:42:03;2.80;86.90
18712;DHT22;9485;49.386;8.674;2022-12-18T19:47:24;2.80;87.20
18712;DHT22;9485;49.386;8.674;2022-12-18T19:52:46;2.70;86.80
18712;DHT22;9485;49.386;8.674;2022-12-18T19:58:07;2.70;86.70
18712;DHT22;9485;49.386;8.674;2022-12-18T20:03:28;2.60;87.20
18712;DHT22;9485;49.386;8.674;2022-12-18T20:08:51;2.60;87.50
18712;DHT22;9485;49.386;8.674;2022-12-18T20:14:13;2.50;87.40
18712;DHT22;9485;49.386;8.674;2022-12-18T20:19:34;2.50;87.50
18712;DHT22;9485;49.386;8.674;2022-12-18T20:24:56;2.50;87.50
18712;DHT22;9485;49.386;8.674;2022-12-18T20:30:17;2.50;87.80
18712;DHT22;9485;49.386;8.674;2022-12-18T20:35:38;2.50;87.30
18712;DHT22;9485;49.386;8.674;2022-12-18T20:41:00;2.60;87.70
18712;DHT22;9485;49.386;8.674;2022-12-18T20:46:21;2.60;87.50
18712;DHT22;9485;49.386;8.674;2022-12-18T20:51:42;2.60;87.70
18712;DHT22;9485;49.386;8.674;2022-12-18T20:57:04;2.50;87.40
18712;DHT22;9485;49.386;8.674;2022-12-18T21:02:25;2.50;87.70
18712;DHT22;9485;49.386;8.674;2022-12-18T21:07:46;2.50;87.90
18712;DHT22;9485;49.386;8.674;2022-12-18T21:13:08;2.40;88.00
18712;DHT22;9485;49.386;8.674;2022-12-18T21:18:28;2.40;87.10
18712;DHT22;9485;49.386;8.674;2022-12-18T21:23:49;2.30;86.90
18712;DHT22;9485;49.386;8.674;2022-12-18T21:29:13;2.20;87.40
18712;DHT22;9485;49.386;8.674;2022-12-18T21:34:36;2.20;87.70
18712;DHT22;9485;49.386;8.674;2022-12-18T21:39:57;2.20;88.00
18712;DHT22;9485;49.386;8.674;2022-12-18T21:45:19;2.20;88.20
18712;DHT22;9485;49.386;8.674;2022-12-18T21:50:40;2.20;88.30
18712;DHT22;9485;49.386;8.674;2022-12-18T21:56:00;2.20;87.40
18712;DHT22;9485;49.386;8.674;2022-12-18T22:01:23;2.10;88.00
18712;DHT22;9485;49.386;8.674;2022-12-18T22:06:43;2.10;88.40
18712;DHT22;9485;49.386;8.674;2022-12-18T22:12:06;2.10;88.60
18712;DHT22;9485;49.386;8.674;2022-12-18T22:17:29;2.10;88.30
18712;DHT22;9485;49.386;8.674;2022-12-18T22:22:50;2.10;88.50
18712;DHT22;9485;49.386;8.674;2022-12-18T22:28:11;2.20;88.50
18712;DHT22;9485;49.386;8.674;2022-12-18T22:33:51;2.20;88.80
18712;DHT22;9485;49.386;8.674;2022-12-18T22:39:13;2.10;89.00
18712;DHT22;9485;49.386;8.674;2022-12-18T22:44:34;2.20;89.10
18712;DHT22;9485;49.386;8.674;2022-12-18T22:49:56;2.20;90.00
18712;DHT22;9485;49.386;8.674;2022-12-18T22:55:17;2.30;89.40
18712;DHT22;9485;49.386;8.674;2022-12-18T23:00:39;2.30;89.50
18712;DHT22;9485;49.386;8.674;2022-12-18T23:06:05;2.40;89.70
18712;DHT22;9485;49.386;8.674;2022-12-18T23:11:26;2.50;89.60
18712;DHT22;9485;49.386;8.674;2022-12-18T23:16:47;2.50;89.70
18712;DHT22;9485;49.386;8.674;2022-12-18T23:22:09;2.60;89.60
18712;DHT22;9485;49.386;8.674;2022-12-18T23:27:30;2.70;89.50
18712;DHT22;9485;49.386;8.674;2022-12-18T23:32:50;2.80;89.70
18712;DHT22;9485;49.386;8.674;2022-12-18T23:38:13;2.80;89.60
18712;DHT22;9485;49.386;8.674;2022-12-18T23:43:34;2.90;89.40
18712;DHT22;9485;49.386;8.674;2022-12-18T23:48:56;3.00;89.40
18712;DHT22;9485;49.386;8.674;2022-12-18T23:54:19;3.00;88.90
18712;DHT22;9485;49.386;8.674;2022-12-18T23:59:39;3.10;88.30
